sensor_id;sensor_type;location;lat;lon;timestamp;P1;P2;P0
64861;PMS5003;62652;42.274;-71.436;2023-04-01T00:00:00;10.00;9.67;5.87
64861;PMS5003;62652;42.274;-71.436;2023-04-01T00:01:00;11.20;10.47;5.93
64861;PMS5003;62652;42.274;-71.436;2023-04-01T00:02:00;11.17;10.07;5.43
64861;PMS5003;62652;42.274;-71.436;2023-04-01T00:03:00;10.70;9.70;6.53
64861;PMS5003;62652;42.274;-71.436;2023-04-01T00:04:00;9.20;8.60;5.93
64861;PMS5003;62652;42.274;-71.436;2023-04-01T00:05:00;8.60;8.57;5.13
64861;PMS5003;62652;42.274;-71.436;2023-04-01T00:06:00;12.20;11.43;6.47
64861;PMS5003;62652;42.274;-71.436;2023-04-01T00:07:00;10.47;9.67;5.20
64861;PMS5003;62652;42.274;-71.436;2023-04-01T00:08:00;11.27;10.40;6.20
64861;PMS5003;62652;42.274;-71.436;2023-04-01T00:09:00;9.60;8.80;4.90
64861;PMS5003;62652;42.274;-71.436;2023-04-01T00:10:00;9.67;9.27;5.77
64861;PMS5003;62652;42.274;-71.436;2023-04-01T00:11:00;10.03;9.83;6.73
64861;PMS5003;62652;42.274;-71.436;2023-04-01T00:12:00;11.87;10.07;6.00
64861;PMS5003;62652;42.274;-71.436;2023-04-01T00:13:00;11.27;10.60;6.00
64861;PMS5003;62652;42.274;-71.436;2023-04-01T00:14:00;10.60;9.83;5.77
64861;PMS5003;62652;42.274;-71.436;2023-04-01T00:15:00;11.03;9.53;5.53
64861;PMS5003;62652;42.274;-71.436;2023-04-01T00:16:00;10.23;9.07;6.03
64861;PMS5003;62652;42.274;-71.436;2023-04-01T00:17:00;10.80;10.30;6.10
64861;PMS5003;62652;42.274;-71.436;2023-04-01T00:18:00;11.30;9.73;6.33
64861;PMS5003;62652;42.274;-71.436;2023-04-01T00:19:00;11.10;10.73;6.57
64861;PMS5003;62652;42.274;-71.436;2023-04-01T00:20:00;10.03;10.03;6.47
64861;PMS5003;62652;42.274;-71.436;2023-04-01T00:21:00;11.03;9.53;6.23
64861;PMS5003;62652;42.274;-71.436;2023-04-01T00:22:00;8.63;8.03;5.03
64861;PMS5003;62652;42.274;-71.436;2023-04-01T00:23:00;9.87;9.73;7.27
64861;PMS5003;62652;42.274;-71.436;2023-04-01T00:24:00;12.37;12.00;7.27
64861;PMS5003;62652;42.274;-71.436;2023-04-01T00:25:00;9.23;9.10;5.63
64861;PMS5003;62652;42.274;-71.436;2023-04-01T00:26:00;9.93;9.53;6.37
64861;PMS5003;62652;42.274;-71.436;2023-04-01T00:27:00;10.23;9.57;6.13
64861;PMS5003;62652;42.274;-71.436;2023-04-01T00:28:00;10.93;9.73;5.13
64861;PMS5003;62652;42.274;-71.436;2023-04-01T00:29:00;11.73;9.50;6.57
64861;PMS5003;62652;42.274;-71.436;2023-04-01T00:30:00;9.67;9.43;5.33
64861;PMS5003;62652;42.274;-71.436;2023-04-01T00:31:03;11.70;10.37;6.17
64861;PMS5003;62652;42.274;-71.436;2023-04-01T00:32:00;12.57;11.17;6.60
64861;PMS5003;62652;42.274;-71.436;2023-04-01T00:33:00;13.10;12.17;6.80
64861;PMS5003;62652;42.274;-71.436;2023-04-01T00:34:00;11.47;10.87;7.33
64861;PMS5003;62652;42.274;-71.436;2023-04-01T00:35:00;13.87;12.57;6.80
64861;PMS5003;62652;42.274;-71.436;2023-04-01T00:36:05;14.07;10.53;7.00
64861;PMS5003;62652;42.274;-71.436;2023-04-01T00:37:00;11.33;10.10;6.07
64861;PMS5003;62652;42.274;-71.436;2023-04-01T00:38:00;11.07;9.33;6.27
64861;PMS5003;62652;42.274;-71.436;2023-04-01T00:39:00;9.93;9.67;6.00
64861;PMS5003;62652;42.274;-71.436;2023-04-01T00:40:00;10.63;9.90;6.17
64861;PMS5003;62652;42.274;-71.436;2023-04-01T00:41:00;8.77;8.60;5.27
64861;PMS5003;62652;42.274;-71.436;2023-04-01T00:42:00;11.30;10.47;7.10
64861;PMS5003;62652;42.274;-71.436;2023-04-01T00:43:00;11.73;11.00;6.60
64861;PMS5003;62652;42.274;-71.436;2023-04-01T00:46:00;12.50;10.77;6.23
64861;PMS5003;62652;42.274;-71.436;2023-04-01T00:47:00;10.77;10.40;5.43
64861;PMS5003;62652;42.274;-71.436;2023-04-01T00:48:02;10.53;9.83;6.57
64861;PMS5003;62652;42.274;-71.436;2023-04-01T00:49:00;12.73;11.17;6.97
64861;PMS5003;62652;42.274;-71.436;2023-04-01T00:50:00;12.77;11.87;7.40
64861;PMS5003;62652;42.274;-71.436;2023-04-01T00:51:01;11.10;9.93;5.13
64861;PMS5003;62652;42.274;-71.436;2023-04-01T00:52:01;11.63;10.83;6.67
64861;PMS5003;62652;42.274;-71.436;2023-04-01T00:53:00;10.90;9.83;6.57
64861;PMS5003;62652;42.274;-71.436;2023-04-01T00:54:00;12.73;9.33;6.23
64861;PMS5003;62652;42.274;-71.436;2023-04-01T00:55:00;11.33;10.67;6.90
64861;PMS5003;62652;42.274;-71.436;2023-04-01T00:56:01;10.17;9.57;5.73
64861;PMS5003;62652;42.274;-71.436;2023-04-01T00:57:01;10.10;8.57;6.30
64861;PMS5003;62652;42.274;-71.436;2023-04-01T00:58:01;11.03;10.10;6.00
64861;PMS5003;62652;42.274;-71.436;2023-04-01T00:59:01;13.30;11.43;7.87
64861;PMS5003;62652;42.274;-71.436;2023-04-01T01:00:00;13.00;11.60;6.27
64861;PMS5003;62652;42.274;-71.436;2023-04-01T01:01:00;10.73;10.63;6.07
64861;PMS5003;62652;42.274;-71.436;2023-04-01T01:02:00;13.97;12.13;6.90
64861;PMS5003;62652;42.274;-71.436;2023-04-01T01:03:00;10.70;10.60;7.23
64861;PMS5003;62652;42.274;-71.436;2023-04-01T01:04:00;13.07;12.53;7.63
64861;PMS5003;62652;42.274;-71.436;2023-04-01T01:05:00;12.70;11.97;7.23
64861;PMS5003;62652;42.274;-71.436;2023-04-01T01:06:06;11.43;10.90;6.90
64861;PMS5003;62652;42.274;-71.436;2023-04-01T01:07:03;11.30;10.83;7.43
64861;PMS5003;62652;42.274;-71.436;2023-04-01T01:08:01;12.87;12.47;6.20
64861;PMS5003;62652;42.274;-71.436;2023-04-01T01:09:03;13.63;12.63;7.70
64861;PMS5003;62652;42.274;-71.436;2023-04-01T01:10:02;13.63;12.77;7.30
64861;PMS5003;62652;42.274;-71.436;2023-04-01T01:11:00;14.23;11.53;6.30
64861;PMS5003;62652;42.274;-71.436;2023-04-01T01:12:03;15.67;12.63;8.00
64861;PMS5003;62652;42.274;-71.436;2023-04-01T01:13:03;12.43;11.93;7.10
64861;PMS5003;62652;42.274;-71.436;2023-04-01T01:14:02;13.20;12.70;8.00
64861;PMS5003;62652;42.274;-71.436;2023-04-01T01:15:02;14.63;13.20;7.50
64861;PMS5003;62652;42.274;-71.436;2023-04-01T01:16:01;13.07;12.30;7.20
64861;PMS5003;62652;42.274;-71.436;2023-04-01T01:17:02;13.83;12.77;7.30
64861;PMS5003;62652;42.274;-71.436;2023-04-01T01:18:02;13.87;12.83;8.07
64861;PMS5003;62652;42.274;-71.436;2023-04-01T01:19:03;12.67;12.07;7.93
64861;PMS5003;62652;42.274;-71.436;2023-04-01T01:20:07;13.43;12.60;8.23
64861;PMS5003;62652;42.274;-71.436;2023-04-01T01:22:04;12.50;11.63;7.23
64861;PMS5003;62652;42.274;-71.436;2023-04-01T01:23:08;16.93;15.93;9.10
64861;PMS5003;62652;42.274;-71.436;2023-04-01T01:24:05;18.10;15.40;8.40
64861;PMS5003;62652;42.274;-71.436;2023-04-01T01:25:10;15.87;13.90;8.23
64861;PMS5003;62652;42.274;-71.436;2023-04-01T01:30:10;14.17;13.20;8.63
64861;PMS5003;62652;42.274;-71.436;2023-04-01T01:31:00;16.17;14.93;8.07
64861;PMS5003;62652;42.274;-71.436;2023-04-01T01:32:02;14.33;13.40;8.20
64861;PMS5003;62652;42.274;-71.436;2023-04-01T01:33:05;14.30;13.87;8.17
64861;PMS5003;62652;42.274;-71.436;2023-04-01T01:34:03;15.80;15.40;9.17
64861;PMS5003;62652;42.274;-71.436;2023-04-01T01:35:08;12.73;11.87;7.73
64861;PMS5003;62652;42.274;-71.436;2023-04-01T01:36:01;14.80;14.63;8.77
64861;PMS5003;62652;42.274;-71.436;2023-04-01T01:37:01;15.20;14.80;9.53
64861;PMS5003;62652;42.274;-71.436;2023-04-01T01:38:01;16.47;15.00;8.63
64861;PMS5003;62652;42.274;-71.436;2023-04-01T01:39:00;16.23;14.53;8.97
64861;PMS5003;62652;42.274;-71.436;2023-04-01T01:40:01;17.37;17.00;9.43
64861;PMS5003;62652;42.274;-71.436;2023-04-01T01:41:01;16.63;14.07;9.43
64861;PMS5003;62652;42.274;-71.436;2023-04-01T01:42:01;13.63;12.97;8.97
64861;PMS5003;62652;42.274;-71.436;2023-04-01T01:43:02;13.40;13.13;8.43
64861;PMS5003;62652;42.274;-71.436;2023-04-01T01:44:00;17.23;15.03;9.53
64861;PMS5003;62652;42.274;-71.436;2023-04-01T01:45:00;14.63;13.87;9.27
64861;PMS5003;62652;42.274;-71.436;2023-04-01T01:46:01;15.93;14.27;9.70
64861;PMS5003;62652;42.274;-71.436;2023-04-01T01:47:00;21.10;18.73;9.63
64861;PMS5003;62652;42.274;-71.436;2023-04-01T01:48:00;15.90;15.20;10.07
64861;PMS5003;62652;42.274;-71.436;2023-04-01T01:49:00;17.07;15.47;9.00
64861;PMS5003;62652;42.274;-71.436;2023-04-01T01:50:00;19.17;17.10;9.80
64861;PMS5003;62652;42.274;-71.436;2023-04-01T01:51:00;16.50;14.97;8.90
64861;PMS5003;62652;42.274;-71.436;2023-04-01T01:52:00;15.90;13.97;8.80
64861;PMS5003;62652;42.274;-71.436;2023-04-01T01:53:03;18.43;16.47;9.67
64861;PMS5003;62652;42.274;-71.436;2023-04-01T01:54:00;15.57;15.03;10.30
64861;PMS5003;62652;42.274;-71.436;2023-04-01T01:55:00;14.60;14.03;9.50
64861;PMS5003;62652;42.274;-71.436;2023-04-01T01:56:00;16.00;15.30;9.83
64861;PMS5003;62652;42.274;-71.436;2023-04-01T01:57:01;16.93;16.13;9.20
64861;PMS5003;62652;42.274;-71.436;2023-04-01T01:58:01;15.97;15.30;9.93
64861;PMS5003;62652;42.274;-71.436;2023-04-01T01:59:01;18.83;16.97;9.77
64861;PMS5003;62652;42.274;-71.436;2023-04-01T02:00:02;18.37;15.20;8.83
64861;PMS5003;62652;42.274;-71.436;2023-04-01T02:01:01;15.87;14.90;9.03
64861;PMS5003;62652;42.274;-71.436;2023-04-01T02:02:00;18.67;16.57;9.67
64861;PMS5003;62652;42.274;-71.436;2023-04-01T02:03:00;17.37;14.50;8.07
64861;PMS5003;62652;42.274;-71.436;2023-04-01T02:04:00;17.40;15.87;9.87
64861;PMS5003;62652;42.274;-71.436;2023-04-01T02:05:00;19.93;17.70;9.90
64861;PMS5003;62652;42.274;-71.436;2023-04-01T02:06:01;17.67;14.00;8.77
64861;PMS5003;62652;42.274;-71.436;2023-04-01T02:07:01;12.73;11.37;8.07
64861;PMS5003;62652;42.274;-71.436;2023-04-01T02:08:02;16.33;16.00;9.53
64861;PMS5003;62652;42.274;-71.436;2023-04-01T02:09:01;17.07;15.30;9.73
64861;PMS5003;62652;42.274;-71.436;2023-04-01T02:10:00;14.83;13.30;8.57
64861;PMS5003;62652;42.274;-71.436;2023-04-01T02:11:00;16.00;14.97;9.00
64861;PMS5003;62652;42.274;-71.436;2023-04-01T02:12:01;16.37;15.13;9.50
64861;PMS5003;62652;42.274;-71.436;2023-04-01T02:13:01;14.90;13.93;9.30
64861;PMS5003;62652;42.274;-71.436;2023-04-01T02:14:01;16.77;15.10;9.53
64861;PMS5003;62652;42.274;-71.436;2023-04-01T02:15:01;18.10;17.50;10.47
64861;PMS5003;62652;42.274;-71.436;2023-04-01T02:16:02;18.70;17.73;9.93
64861;PMS5003;62652;42.274;-71.436;2023-04-01T02:17:02;17.73;15.70;9.03
64861;PMS5003;62652;42.274;-71.436;2023-04-01T02:18:00;18.93;15.87;9.73
64861;PMS5003;62652;42.274;-71.436;2023-04-01T02:19:00;20.30;19.00;9.47
64861;PMS5003;62652;42.274;-71.436;2023-04-01T02:20:01;15.83;14.97;8.63
64861;PMS5003;62652;42.274;-71.436;2023-04-01T02:21:00;16.33;15.33;10.47
64861;PMS5003;62652;42.274;-71.436;2023-04-01T02:22:01;19.90;17.03;10.20
64861;PMS5003;62652;42.274;-71.436;2023-04-01T02:23:00;19.13;17.97;10.83
64861;PMS5003;62652;42.274;-71.436;2023-04-01T02:24:01;18.47;17.27;10.10
64861;PMS5003;62652;42.274;-71.436;2023-04-01T02:25:02;18.17;17.83;10.80
64861;PMS5003;62652;42.274;-71.436;2023-04-01T02:26:00;18.17;17.13;9.93
64861;PMS5003;62652;42.274;-71.436;2023-04-01T02:27:00;21.03;19.90;11.77
64861;PMS5003;62652;42.274;-71.436;2023-04-01T02:28:00;19.27;18.27;11.37
64861;PMS5003;62652;42.274;-71.436;2023-04-01T02:29:00;21.23;18.50;11.50
64861;PMS5003;62652;42.274;-71.436;2023-04-01T02:30:00;22.03;19.80;12.40
64861;PMS5003;62652;42.274;-71.436;2023-04-01T02:31:00;22.00;21.40;11.90
64861;PMS5003;62652;42.274;-71.436;2023-04-01T02:32:00;19.00;17.83;11.33
64861;PMS5003;62652;42.274;-71.436;2023-04-01T02:33:00;19.63;17.07;10.80
64861;PMS5003;62652;42.274;-71.436;2023-04-01T02:34:00;21.70;18.90;10.07
64861;PMS5003;62652;42.274;-71.436;2023-04-01T02:35:00;18.13;17.13;9.47
64861;PMS5003;62652;42.274;-71.436;2023-04-01T02:36:00;20.53;18.33;11.07
64861;PMS5003;62652;42.274;-71.436;2023-04-01T02:37:00;20.87;18.90;12.10
64861;PMS5003;62652;42.274;-71.436;2023-04-01T02:38:00;23.37;21.03;11.67
64861;PMS5003;62652;42.274;-71.436;2023-04-01T02:39:00;21.40;19.13;9.83
64861;PMS5003;62652;42.274;-71.436;2023-04-01T02:40:00;21.47;19.87;11.20
64861;PMS5003;62652;42.274;-71.436;2023-04-01T02:41:00;21.77;20.57;10.53
64861;PMS5003;62652;42.274;-71.436;2023-04-01T02:42:00;17.87;16.43;10.23
64861;PMS5003;62652;42.274;-71.436;2023-04-01T02:43:00;21.40;17.50;10.43
64861;PMS5003;62652;42.274;-71.436;2023-04-01T02:44:00;19.93;17.03;10.70
64861;PMS5003;62652;42.274;-71.436;2023-04-01T02:45:00;21.60;19.90;12.33
64861;PMS5003;62652;42.274;-71.436;2023-04-01T02:46:00;21.33;19.33;11.37
64861;PMS5003;62652;42.274;-71.436;2023-04-01T02:47:00;21.13;20.13;11.10
64861;PMS5003;62652;42.274;-71.436;2023-04-01T02:48:00;21.23;20.20;11.47
64861;PMS5003;62652;42.274;-71.436;2023-04-01T02:49:00;21.30;19.87;12.17
64861;PMS5003;62652;42.274;-71.436;2023-04-01T02:50:00;23.33;19.90;10.93
64861;PMS5003;62652;42.274;-71.436;2023-04-01T02:51:00;19.47;18.60;12.33
64861;PMS5003;62652;42.274;-71.436;2023-04-01T02:52:00;19.67;18.70;10.93
64861;PMS5003;62652;42.274;-71.436;2023-04-01T02:53:00;18.13;18.13;11.50
64861;PMS5003;62652;42.274;-71.436;2023-04-01T02:54:00;20.53;18.53;11.00
64861;PMS5003;62652;42.274;-71.436;2023-04-01T02:55:00;22.33;20.77;12.70
64861;PMS5003;62652;42.274;-71.436;2023-04-01T02:56:00;22.13;21.23;12.33
64861;PMS5003;62652;42.274;-71.436;2023-04-01T02:57:00;22.13;20.90;12.10
64861;PMS5003;62652;42.274;-71.436;2023-04-01T02:58:01;23.47;21.80;12.20
64861;PMS5003;62652;42.274;-71.436;2023-04-01T02:59:00;20.33;19.60;12.13
64861;PMS5003;62652;42.274;-71.436;2023-04-01T03:00:00;20.30;18.37;11.13
64861;PMS5003;62652;42.274;-71.436;2023-04-01T03:01:00;23.00;20.97;11.57
64861;PMS5003;62652;42.274;-71.436;2023-04-01T03:02:00;23.77;22.03;11.30
64861;PMS5003;62652;42.274;-71.436;2023-04-01T03:03:00;24.90;23.40;13.40
64861;PMS5003;62652;42.274;-71.436;2023-04-01T03:04:00;24.30;22.83;12.17
64861;PMS5003;62652;42.274;-71.436;2023-04-01T03:05:00;22.17;20.53;12.37
64861;PMS5003;62652;42.274;-71.436;2023-04-01T03:06:04;25.30;23.70;12.57
64861;PMS5003;62652;42.274;-71.436;2023-04-01T03:07:00;21.33;20.03;13.17
64861;PMS5003;62652;42.274;-71.436;2023-04-01T03:08:01;25.97;22.83;13.30
64861;PMS5003;62652;42.274;-71.436;2023-04-01T03:09:00;24.50;22.13;13.47
64861;PMS5003;62652;42.274;-71.436;2023-04-01T03:10:00;26.00;25.07;12.77
64861;PMS5003;62652;42.274;-71.436;2023-04-01T03:11:00;28.20;24.73;14.63
64861;PMS5003;62652;42.274;-71.436;2023-04-01T03:12:00;23.80;21.40;13.03
64861;PMS5003;62652;42.274;-71.436;2023-04-01T03:13:00;26.07;23.97;13.57
64861;PMS5003;62652;42.274;-71.436;2023-04-01T03:14:00;25.30;23.63;12.83
64861;PMS5003;62652;42.274;-71.436;2023-04-01T03:15:00;25.30;23.17;13.13
64861;PMS5003;62652;42.274;-71.436;2023-04-01T03:16:00;25.87;23.83;13.43
64861;PMS5003;62652;42.274;-71.436;2023-04-01T03:17:00;29.63;27.77;15.53
64861;PMS5003;62652;42.274;-71.436;2023-04-01T03:18:00;25.07;23.60;14.43
64861;PMS5003;62652;42.274;-71.436;2023-04-01T03:19:00;25.70;23.70;13.63
64861;PMS5003;62652;42.274;-71.436;2023-04-01T03:20:00;25.73;24.83;13.80
64861;PMS5003;62652;42.274;-71.436;2023-04-01T03:22:00;25.80;24.30;15.67
64861;PMS5003;62652;42.274;-71.436;2023-04-01T03:23:00;25.97;24.77;13.97
64861;PMS5003;62652;42.274;-71.436;2023-04-01T03:24:00;29.17;25.43;14.13
64861;PMS5003;62652;42.274;-71.436;2023-04-01T03:25:00;25.70;23.67;12.80
64861;PMS5003;62652;42.274;-71.436;2023-04-01T03:26:00;26.13;23.67;13.60
64861;PMS5003;62652;42.274;-71.436;2023-04-01T03:27:00;26.40;24.77;14.33
64861;PMS5003;62652;42.274;-71.436;2023-04-01T03:28:00;23.83;21.67;12.03
64861;PMS5003;62652;42.274;-71.436;2023-04-01T03:29:00;23.93;23.77;13.27
64861;PMS5003;62652;42.274;-71.436;2023-04-01T03:30:00;21.93;21.07;12.50
64861;PMS5003;62652;42.274;-71.436;2023-04-01T03:31:00;26.80;24.80;13.43
64861;PMS5003;62652;42.274;-71.436;2023-04-01T03:32:00;27.07;24.20;13.57
64861;PMS5003;62652;42.274;-71.436;2023-04-01T03:33:00;24.83;23.73;12.83
64861;PMS5003;62652;42.274;-71.436;2023-04-01T03:34:00;26.20;24.03;14.20
64861;PMS5003;62652;42.274;-71.436;2023-04-01T03:35:00;26.50;23.83;13.00
64861;PMS5003;62652;42.274;-71.436;2023-04-01T03:36:00;27.33;25.87;14.07
64861;PMS5003;62652;42.274;-71.436;2023-04-01T03:37:00;28.33;24.80;13.17
64861;PMS5003;62652;42.274;-71.436;2023-04-01T03:38:00;25.67;23.93;15.03
64861;PMS5003;62652;42.274;-71.436;2023-04-01T03:39:00;24.03;22.97;13.10
64861;PMS5003;62652;42.274;-71.436;2023-04-01T03:40:00;25.70;21.83;12.57
64861;PMS5003;62652;42.274;-71.436;2023-04-01T03:41:00;22.93;21.00;14.20
64861;PMS5003;62652;42.274;-71.436;2023-04-01T03:42:00;26.97;25.30;15.10
64861;PMS5003;62652;42.274;-71.436;2023-04-01T03:43:00;22.97;21.70;12.23
64861;PMS5003;62652;42.274;-71.436;2023-04-01T03:44:00;24.40;23.13;13.33
64861;PMS5003;62652;42.274;-71.436;2023-04-01T03:45:00;26.90;24.57;13.87
64861;PMS5003;62652;42.274;-71.436;2023-04-01T03:46:00;25.53;23.33;13.00
64861;PMS5003;62652;42.274;-71.436;2023-04-01T03:47:00;19.17;19.07;12.80
64861;PMS5003;62652;42.274;-71.436;2023-04-01T03:48:00;24.87;22.77;13.83
64861;PMS5003;62652;42.274;-71.436;2023-04-01T03:49:00;26.57;25.17;13.57
64861;PMS5003;62652;42.274;-71.436;2023-04-01T03:50:00;26.43;25.10;13.73
64861;PMS5003;62652;42.274;-71.436;2023-04-01T03:51:00;24.10;22.93;11.63
64861;PMS5003;62652;42.274;-71.436;2023-04-01T03:52:00;24.63;19.53;11.10
64861;PMS5003;62652;42.274;-71.436;2023-04-01T03:53:00;26.30;24.63;12.90
64861;PMS5003;62652;42.274;-71.436;2023-04-01T03:54:00;24.97;23.47;12.60
64861;PMS5003;62652;42.274;-71.436;2023-04-01T03:55:00;26.00;24.27;12.77
64861;PMS5003;62652;42.274;-71.436;2023-04-01T03:56:03;22.00;22.00;12.73
64861;PMS5003;62652;42.274;-71.436;2023-04-01T03:57:00;24.63;21.60;12.93
64861;PMS5003;62652;42.274;-71.436;2023-04-01T03:58:00;24.67;23.40;13.83
64861;PMS5003;62652;42.274;-71.436;2023-04-01T03:59:02;24.83;22.20;13.27
64861;PMS5003;62652;42.274;-71.436;2023-04-01T04:00:00;24.00;20.97;11.63
64861;PMS5003;62652;42.274;-71.436;2023-04-01T04:01:00;20.93;20.17;13.40
64861;PMS5003;62652;42.274;-71.436;2023-04-01T04:02:00;25.10;24.03;13.43
64861;PMS5003;62652;42.274;-71.436;2023-04-01T04:03:00;25.97;22.63;11.80
64861;PMS5003;62652;42.274;-71.436;2023-04-01T04:04:01;28.27;24.90;13.87
64861;PMS5003;62652;42.274;-71.436;2023-04-01T04:05:00;26.57;23.07;13.60
64861;PMS5003;62652;42.274;-71.436;2023-04-01T04:06:00;23.87;21.60;12.53
64861;PMS5003;62652;42.274;-71.436;2023-04-01T04:07:00;23.43;22.20;11.10
64861;PMS5003;62652;42.274;-71.436;2023-04-01T04:08:00;23.90;22.50;11.93
64861;PMS5003;62652;42.274;-71.436;2023-04-01T04:09:00;24.07;21.47;13.30
64861;PMS5003;62652;42.274;-71.436;2023-04-01T04:10:00;22.13;22.00;11.00
64861;PMS5003;62652;42.274;-71.436;2023-04-01T04:11:00;24.67;23.43;13.53
64861;PMS5003;62652;42.274;-71.436;2023-04-01T04:12:00;23.00;22.13;12.30
64861;PMS5003;62652;42.274;-71.436;2023-04-01T04:13:00;25.00;23.97;13.20
64861;PMS5003;62652;42.274;-71.436;2023-04-01T04:14:00;23.07;21.77;12.23
64861;PMS5003;62652;42.274;-71.436;2023-04-01T04:15:01;21.40;20.80;12.97
64861;PMS5003;62652;42.274;-71.436;2023-04-01T04:16:00;19.60;19.23;11.47
64861;PMS5003;62652;42.274;-71.436;2023-04-01T04:17:00;21.27;19.60;11.93
64861;PMS5003;62652;42.274;-71.436;2023-04-01T04:18:00;21.07;19.67;12.07
64861;PMS5003;62652;42.274;-71.436;2023-04-01T04:19:00;21.83;20.87;12.43
64861;PMS5003;62652;42.274;-71.436;2023-04-01T04:20:00;23.17;20.70;11.60
64861;PMS5003;62652;42.274;-71.436;2023-04-01T04:21:00;19.43;18.67;11.20
64861;PMS5003;62652;42.274;-71.436;2023-04-01T04:22:00;25.30;23.27;13.13
64861;PMS5003;62652;42.274;-71.436;2023-04-01T04:23:00;25.23;23.70;11.80
64861;PMS5003;62652;42.274;-71.436;2023-04-01T04:24:01;25.50;22.03;12.90
64861;PMS5003;62652;42.274;-71.436;2023-04-01T04:25:00;26.17;24.97;13.83
64861;PMS5003;62652;42.274;-71.436;2023-04-01T04:26:02;24.23;22.97;13.77
64861;PMS5003;62652;42.274;-71.436;2023-04-01T04:27:00;22.90;22.20;11.10
64861;PMS5003;62652;42.274;-71.436;2023-04-01T04:28:00;23.23;21.77;11.67
64861;PMS5003;62652;42.274;-71.436;2023-04-01T04:29:00;26.17;23.10;11.53
64861;PMS5003;62652;42.274;-71.436;2023-04-01T04:30:00;25.70;24.80;13.97
64861;PMS5003;62652;42.274;-71.436;2023-04-01T04:31:00;21.47;20.50;12.47
64861;PMS5003;62652;42.274;-71.436;2023-04-01T04:32:00;25.97;24.17;13.60
64861;PMS5003;62652;42.274;-71.436;2023-04-01T04:33:00;22.53;20.47;12.43
64861;PMS5003;62652;42.274;-71.436;2023-04-01T04:34:00;21.43;20.13;11.70
64861;PMS5003;62652;42.274;-71.436;2023-04-01T04:35:00;27.17;25.60;13.07
64861;PMS5003;62652;42.274;-71.436;2023-04-01T04:36:01;28.13;26.27;15.03
64861;PMS5003;62652;42.274;-71.436;2023-04-01T04:37:00;25.23;22.97;14.07
64861;PMS5003;62652;42.274;-71.436;2023-04-01T04:38:00;24.73;22.20;13.37
64861;PMS5003;62652;42.274;-71.436;2023-04-01T04:39:00;24.40;22.53;13.27
64861;PMS5003;62652;42.274;-71.436;2023-04-01T04:40:00;24.43;22.37;13.17
64861;PMS5003;62652;42.274;-71.436;2023-04-01T04:41:00;27.87;25.63;12.63
64861;PMS5003;62652;42.274;-71.436;2023-04-01T04:42:00;32.53;29.17;15.80
64861;PMS5003;62652;42.274;-71.436;2023-04-01T04:43:00;24.33;22.60;13.10
64861;PMS5003;62652;42.274;-71.436;2023-04-01T04:44:00;35.30;30.97;14.90
64861;PMS5003;62652;42.274;-71.436;2023-04-01T04:45:00;26.50;25.70;14.77
64861;PMS5003;62652;42.274;-71.436;2023-04-01T04:46:03;31.80;28.00;14.77
64861;PMS5003;62652;42.274;-71.436;2023-04-01T04:47:00;29.53;26.80;14.60
64861;PMS5003;62652;42.274;-71.436;2023-04-01T04:48:00;25.40;23.83;15.07
64861;PMS5003;62652;42.274;-71.436;2023-04-01T04:49:00;26.10;23.97;13.60
64861;PMS5003;62652;42.274;-71.436;2023-04-01T04:50:00;29.70;27.73;14.13
64861;PMS5003;62652;42.274;-71.436;2023-04-01T04:51:00;30.53;27.43;15.20
64861;PMS5003;62652;42.274;-71.436;2023-04-01T04:52:00;30.60;28.83;15.57
64861;PMS5003;62652;42.274;-71.436;2023-04-01T04:53:00;29.77;26.97;14.00
64861;PMS5003;62652;42.274;-71.436;2023-04-01T04:54:00;29.77;26.50;14.17
64861;PMS5003;62652;42.274;-71.436;2023-04-01T04:55:00;28.57;25.67;14.27
64861;PMS5003;62652;42.274;-71.436;2023-04-01T04:56:00;30.73;28.50;14.17
64861;PMS5003;62652;42.274;-71.436;2023-04-01T04:57:00;31.83;26.47;13.90
64861;PMS5003;62652;42.274;-71.436;2023-04-01T04:58:00;30.83;26.93;15.17
64861;PMS5003;62652;42.274;-71.436;2023-04-01T04:59:01;32.27;29.13;14.53
64861;PMS5003;62652;42.274;-71.436;2023-04-01T05:00:00;29.80;28.43;15.20
64861;PMS5003;62652;42.274;-71.436;2023-04-01T05:01:05;27.20;24.90;14.27
64861;PMS5003;62652;42.274;-71.436;2023-04-01T05:02:00;31.47;28.97;14.43
64861;PMS5003;62652;42.274;-71.436;2023-04-01T05:03:00;30.60;29.23;14.33
64861;PMS5003;62652;42.274;-71.436;2023-04-01T05:04:00;30.87;27.17;14.60
64861;PMS5003;62652;42.274;-71.436;2023-04-01T05:05:00;30.63;28.33;14.43
64861;PMS5003;62652;42.274;-71.436;2023-04-01T05:06:00;29.07;28.03;15.27
64861;PMS5003;62652;42.274;-71.436;2023-04-01T05:07:00;35.70;29.23;14.73
64861;PMS5003;62652;42.274;-71.436;2023-04-01T05:08:00;32.87;30.27;15.50
64861;PMS5003;62652;42.274;-71.436;2023-04-01T05:09:00;30.10;27.57;13.83
64861;PMS5003;62652;42.274;-71.436;2023-04-01T05:10:00;29.23;26.33;14.70
64861;PMS5003;62652;42.274;-71.436;2023-04-01T05:11:00;35.47;31.30;15.57
64861;PMS5003;62652;42.274;-71.436;2023-04-01T05:12:00;31.57;29.23;15.30
64861;PMS5003;62652;42.274;-71.436;2023-04-01T05:13:00;31.70;28.50;14.63
64861;PMS5003;62652;42.274;-71.436;2023-04-01T05:14:00;35.23;31.30;14.87
64861;PMS5003;62652;42.274;-71.436;2023-04-01T05:15:00;34.00;30.90;15.83
64861;PMS5003;62652;42.274;-71.436;2023-04-01T05:16:00;27.17;25.53;13.23
64861;PMS5003;62652;42.274;-71.436;2023-04-01T05:17:00;29.83;28.53;16.20
64861;PMS5003;62652;42.274;-71.436;2023-04-01T05:18:00;34.97;30.73;15.30
64861;PMS5003;62652;42.274;-71.436;2023-04-01T05:19:00;34.23;30.87;14.73
64861;PMS5003;62652;42.274;-71.436;2023-04-01T05:20:00;33.07;30.97;15.37
64861;PMS5003;62652;42.274;-71.436;2023-04-01T05:21:00;31.13;28.20;14.20
64861;PMS5003;62652;42.274;-71.436;2023-04-01T05:22:00;33.63;29.03;14.43
64861;PMS5003;62652;42.274;-71.436;2023-04-01T05:23:00;31.87;28.23;16.37
64861;PMS5003;62652;42.274;-71.436;2023-04-01T05:24:00;35.37;31.53;15.07
64861;PMS5003;62652;42.274;-71.436;2023-04-01T05:25:00;32.07;28.37;14.97
64861;PMS5003;62652;42.274;-71.436;2023-04-01T05:26:02;33.57;30.27;14.13
64861;PMS5003;62652;42.274;-71.436;2023-04-01T05:27:00;30.67;27.77;14.83
64861;PMS5003;62652;42.274;-71.436;2023-04-01T05:28:00;27.77;24.30;15.10
64861;PMS5003;62652;42.274;-71.436;2023-04-01T05:29:00;30.23;27.43;13.87
64861;PMS5003;62652;42.274;-71.436;2023-04-01T05:30:00;32.63;27.27;14.20
64861;PMS5003;62652;42.274;-71.436;2023-04-01T05:31:00;32.87;28.30;14.57
64861;PMS5003;62652;42.274;-71.436;2023-04-01T05:32:00;30.27;26.83;13.63
64861;PMS5003;62652;42.274;-71.436;2023-04-01T05:33:00;33.43;30.53;14.50
64861;PMS5003;62652;42.274;-71.436;2023-04-01T05:34:00;27.47;23.80;12.53
64861;PMS5003;62652;42.274;-71.436;2023-04-01T05:35:00;31.93;28.20;14.17
64861;PMS5003;62652;42.274;-71.436;2023-04-01T05:36:08;25.80;23.67;12.37
64861;PMS5003;62652;42.274;-71.436;2023-04-01T05:37:00;28.80;26.13;13.47